createdAt,value
2019-04-25T00:00:46.638Z,0.00
2019-04-25T00:01:46.620Z,0.00
2019-04-25T00:02:46.603Z,0.00
2019-04-25T00:03:46.678Z,0.00
2019-04-25T00:04:46.781Z,0.00
2019-04-25T00:05:46.865Z,0.00
2019-04-25T00:06:46.876Z,0.00
2019-04-25T00:07:47.119Z,0.00
2019-04-25T00:08:47.297Z,0.00
2019-04-25T00:09:47.307Z,0.00
2019-04-25T00:10:46.468Z,0.00
2019-04-25T00:11:47.886Z,0.00
2019-04-25T00:12:46.434Z,0.00
2019-04-25T00:13:46.420Z,0.00
2019-04-25T00:14:46.410Z,0.00
2019-04-25T00:15:47.091Z,0.00
2019-04-25T00:16:47.084Z,0.00
2019-04-25T00:17:46.351Z,0.00
2019-04-25T00:18:46.351Z,0.00
2019-04-25T00:19:46.463Z,0.00
2019-04-25T00:20:46.590Z,0.00
2019-04-25T00:21:46.715Z,0.00
2019-04-25T00:22:46.975Z,0.00
2019-04-25T00:23:47.091Z,0.00
2019-04-25T00:24:46.230Z,0.00
2019-04-25T00:25:47.800Z,0.00
2019-04-25T00:26:46.341Z,0.00
2019-04-25T00:27:47.113Z,0.00
2019-04-25T00:28:46.719Z,0.00
2019-04-25T00:29:46.807Z,0.00
2019-04-25T00:30:46.128Z,0.00
2019-04-25T00:31:46.104Z,0.00
2019-04-25T00:32:46.090Z,0.00
2019-04-25T00:33:46.106Z,0.00
2019-04-25T00:34:46.631Z,0.00
2019-04-25T00:35:46.033Z,0.00
2019-04-25T00:36:46.740Z,0.00
2019-04-25T00:37:46.191Z,0.00
2019-04-25T00:38:47.829Z,0.00
2019-04-25T00:39:46.161Z,0.00
2019-04-25T00:40:45.956Z,0.00
2019-04-25T00:41:46.407Z,0.00
2019-04-25T00:42:46.245Z,0.00
2019-04-25T00:43:45.899Z,0.00
2019-04-25T00:44:45.969Z,0.00
2019-04-25T00:45:45.885Z,0.00
2019-04-25T00:46:48.767Z,0.00
2019-04-25T00:47:45.836Z,0.00
2019-04-25T00:48:45.816Z,0.00
2019-04-25T00:49:46.058Z,0.00
2019-04-25T00:50:46.017Z,0.00
2019-04-25T00:51:46.149Z,0.00
2019-04-25T00:52:46.219Z,0.00
2019-04-25T00:53:46.102Z,0.00
2019-04-25T00:54:46.273Z,0.00
2019-04-25T00:55:46.405Z,0.00
2019-04-25T00:56:46.967Z,0.00
2019-04-25T00:57:45.658Z,0.00
2019-04-25T00:58:45.635Z,0.00
2019-04-25T00:59:45.624Z,0.00
2019-04-25T01:00:45.653Z,0.00
2019-04-25T01:01:46.600Z,0.00
2019-04-25T01:02:45.570Z,0.00
2019-04-25T01:03:45.552Z,0.00
2019-04-25T01:04:45.534Z,0.00
2019-04-25T01:05:45.750Z,0.00
2019-04-25T01:06:45.512Z,0.00
2019-04-25T01:07:45.637Z,0.00
2019-04-25T01:08:45.805Z,0.00
2019-04-25T01:09:45.699Z,0.00
2019-04-25T01:10:45.863Z,0.00
2019-04-25T01:11:45.903Z,0.00
2019-04-25T01:12:46.150Z,0.00
2019-04-25T01:13:46.173Z,0.00
2019-04-25T01:14:45.703Z,0.00
2019-04-25T01:15:45.329Z,0.00
2019-04-25T01:16:45.333Z,0.00
2019-04-25T01:17:45.504Z,0.00
2019-04-25T01:18:45.424Z,0.00
2019-04-25T01:19:45.792Z,0.00
2019-04-25T01:20:45.518Z,0.00
2019-04-25T01:21:45.590Z,0.00
2019-04-25T01:22:45.783Z,0.00
2019-04-25T01:23:45.820Z,0.00
2019-04-25T01:24:45.707Z,0.00
2019-04-25T01:25:46.724Z,0.00
2019-04-25T01:26:45.890Z,0.00
2019-04-25T01:27:46.058Z,0.00
2019-04-25T01:28:46.114Z,0.00
2019-04-25T01:29:46.199Z,0.00
2019-04-25T01:30:46.275Z,0.00
2019-04-25T01:31:46.487Z,0.00
2019-04-25T01:32:45.033Z,0.00
2019-04-25T01:33:45.033Z,0.00
2019-04-25T01:34:45.000Z,0.00
2019-04-25T01:35:45.051Z,0.00
2019-04-25T01:36:44.964Z,0.00
2019-04-25T01:37:44.947Z,0.00
2019-04-25T01:38:44.931Z,0.00
2019-04-25T01:39:44.906Z,0.00
2019-04-25T01:40:44.896Z,0.00
2019-04-25T01:41:44.965Z,0.00
2019-04-25T01:42:44.878Z,0.00
2019-04-25T01:43:44.842Z,0.00
2019-04-25T01:44:44.824Z,0.00
2019-04-25T01:45:44.808Z,0.00
2019-04-25T01:46:44.786Z,0.00
2019-04-25T01:47:45.509Z,0.00
2019-04-25T01:48:44.756Z,0.00
2019-04-25T01:49:44.734Z,0.00
2019-04-25T01:50:44.723Z,0.00
2019-04-25T01:51:44.705Z,0.00
2019-04-25T01:52:44.722Z,0.00
2019-04-25T01:53:44.658Z,0.00
2019-04-25T01:54:44.651Z,0.00
2019-04-25T01:55:53.743Z,0.00
2019-04-25T01:56:44.613Z,0.00
2019-04-25T01:57:45.342Z,0.00
2019-04-25T01:58:44.571Z,0.00
2019-04-25T01:59:44.556Z,0.00
2019-04-25T02:00:44.993Z,0.00
2019-04-25T02:01:44.522Z,0.00
2019-04-25T02:02:44.509Z,0.00
2019-04-25T02:03:44.478Z,0.00
2019-04-25T02:04:44.467Z,0.00
2019-04-25T02:05:44.451Z,0.00
2019-04-25T02:06:44.434Z,0.00
2019-04-25T02:07:44.464Z,0.00
2019-04-25T02:08:44.396Z,0.00
2019-04-25T02:09:44.405Z,0.00
2019-04-25T02:10:44.359Z,0.00
2019-04-25T02:11:44.351Z,0.00
2019-04-25T02:12:44.338Z,0.00
2019-04-25T02:13:44.308Z,0.00
2019-04-25T02:14:44.299Z,0.00
2019-04-25T02:15:44.275Z,0.00
2019-04-25T02:16:44.253Z,0.00
2019-04-25T02:17:44.252Z,0.00
2019-04-25T02:18:44.232Z,0.00
2019-04-25T02:19:44.291Z,0.00
2019-04-25T02:20:44.184Z,0.00
2019-04-25T02:21:44.171Z,0.00
2019-04-25T02:22:44.252Z,0.00
2019-04-25T02:23:44.293Z,0.00
2019-04-25T02:24:44.118Z,0.00
2019-04-25T02:25:44.322Z,0.00
2019-04-25T02:26:44.082Z,0.00
2019-04-25T02:27:44.251Z,0.00
2019-04-25T02:28:44.052Z,0.00
2019-04-25T02:29:44.782Z,0.00
2019-04-25T02:30:45.440Z,0.00
2019-04-25T02:31:44.977Z,0.00
2019-04-25T02:32:44.281Z,0.00
2019-04-25T02:33:44.393Z,0.00
2019-04-25T02:34:45.608Z,0.00
2019-04-25T02:35:46.584Z,0.00
2019-04-25T02:36:46.680Z,0.00
2019-04-25T02:37:45.145Z,0.00
2019-04-25T02:38:44.299Z,0.00
2019-04-25T02:39:44.739Z,0.00
2019-04-25T02:40:45.419Z,0.00
2019-04-25T02:41:44.481Z,0.00
2019-04-25T02:42:44.339Z,0.00
2019-04-25T02:43:45.012Z,0.00
2019-04-25T02:44:44.545Z,0.00
2019-04-25T02:45:44.228Z,0.00
2019-04-25T02:46:44.951Z,0.00
2019-04-25T02:47:44.234Z,0.00
2019-04-25T02:48:44.239Z,0.00
2019-04-25T02:49:44.689Z,0.00
2019-04-25T02:50:46.153Z,0.00
2019-04-25T02:51:45.102Z,0.00
2019-04-25T02:52:44.384Z,0.00
2019-04-25T02:53:44.660Z,0.00
2019-04-25T02:54:44.933Z,0.00
2019-04-25T02:55:44.593Z,0.00
2019-04-25T02:56:46.426Z,0.00
2019-04-25T02:57:44.866Z,0.00
2019-04-25T02:58:44.299Z,0.00
2019-04-25T02:59:45.098Z,0.00
2019-04-25T03:00:54.857Z,0.00
2019-04-25T03:01:44.465Z,0.00
2019-04-25T03:02:44.568Z,0.00
2019-04-25T03:03:44.944Z,0.00
2019-04-25T03:04:44.460Z,0.00
2019-04-25T03:05:47.183Z,0.00
2019-04-25T03:06:45.299Z,0.00
2019-04-25T03:07:44.512Z,0.00
2019-04-25T03:08:44.886Z,0.00
2019-04-25T03:09:45.100Z,0.00
2019-04-25T03:10:44.308Z,0.00
2019-04-25T03:11:45.217Z,0.00
2019-04-25T03:12:44.688Z,0.00
2019-04-25T03:13:44.153Z,0.00
2019-04-25T03:14:44.614Z,0.00
2019-04-25T03:15:44.226Z,0.00
2019-04-25T03:16:44.829Z,0.00
2019-04-25T03:17:44.426Z,0.00
2019-04-25T03:18:44.329Z,0.00
2019-04-25T03:19:43.969Z,0.00
2019-04-25T03:20:45.131Z,0.00
2019-04-25T03:21:45.225Z,0.00
2019-04-25T03:22:44.413Z,0.00
2019-04-25T03:23:46.042Z,0.00
2019-04-25T03:24:43.081Z,0.00
2019-04-25T03:25:43.475Z,0.00
2019-04-25T03:26:44.300Z,0.00
2019-04-25T03:27:44.095Z,0.00
2019-04-25T03:28:43.834Z,0.00
2019-04-25T03:29:44.333Z,0.00
2019-04-25T03:30:44.886Z,0.00
2019-04-25T03:31:45.048Z,0.00
2019-04-25T03:32:45.151Z,0.00
2019-04-25T03:33:45.906Z,0.00
2019-04-25T03:34:43.478Z,0.00
2019-04-25T03:35:43.278Z,0.00
2019-04-25T03:36:43.895Z,0.00
2019-04-25T03:37:43.603Z,0.00
2019-04-25T03:38:44.165Z,0.00
2019-04-25T03:39:43.645Z,0.00
2019-04-25T03:40:43.952Z,0.00
2019-04-25T03:41:43.825Z,0.00
2019-04-25T03:42:43.919Z,0.00
2019-04-25T03:43:44.146Z,0.00
2019-04-25T03:44:43.803Z,0.00
2019-04-25T03:45:43.225Z,0.00
2019-04-25T03:46:43.846Z,0.00
2019-04-25T03:47:43.191Z,0.00
2019-04-25T03:48:44.086Z,0.00
2019-04-25T03:49:43.479Z,0.00
2019-04-25T03:50:44.067Z,4.00
2019-04-25T03:51:43.858Z,4.00
2019-04-25T03:52:43.577Z,0.00
2019-04-25T03:53:43.786Z,4.00
2019-04-25T03:54:43.396Z,4.00
2019-04-25T03:55:44.036Z,4.00
2019-04-25T03:56:53.287Z,4.00
2019-04-25T03:57:44.262Z,4.00
2019-04-25T03:58:43.897Z,8.00
2019-04-25T03:59:43.735Z,8.00
2019-04-25T04:00:44.587Z,8.00
2019-04-25T04:01:43.877Z,12.00
2019-04-25T04:02:44.094Z,12.00
2019-04-25T04:03:43.848Z,12.00
2019-04-25T04:04:43.532Z,16.00
2019-04-25T04:05:43.795Z,16.00
2019-04-25T04:06:43.991Z,16.00
2019-04-25T04:07:43.481Z,20.00
2019-04-25T04:08:44.102Z,24.00
2019-04-25T04:09:43.522Z,24.00
2019-04-25T04:10:43.265Z,28.00
2019-04-25T04:11:43.519Z,32.00
2019-04-25T04:12:42.240Z,32.00
2019-04-25T04:13:43.820Z,36.00
2019-04-25T04:14:43.709Z,40.00
2019-04-25T04:15:43.399Z,48.00
2019-04-25T04:16:42.175Z,52.00
2019-04-25T04:17:43.716Z,56.00
2019-04-25T04:18:42.137Z,56.00
2019-04-25T04:19:43.567Z,64.00
2019-04-25T04:20:43.483Z,64.00
2019-04-25T04:21:43.223Z,72.00
2019-04-25T04:22:43.770Z,76.00
2019-04-25T04:23:43.060Z,80.00
2019-04-25T04:24:43.938Z,84.00
2019-04-25T04:25:43.266Z,88.00
2019-04-25T04:26:43.119Z,96.00
2019-04-25T04:27:41.983Z,100.00
2019-04-25T04:28:43.463Z,108.00
2019-04-25T04:29:43.242Z,112.00
2019-04-25T04:30:41.950Z,116.00
2019-04-25T04:31:43.146Z,124.00
2019-04-25T04:32:41.896Z,128.00
2019-04-25T04:33:43.110Z,136.00
2019-04-25T04:34:43.528Z,140.00
2019-04-25T04:35:41.842Z,148.00
2019-04-25T04:36:41.828Z,156.00
2019-04-25T04:37:43.148Z,164.00
2019-04-25T04:38:41.827Z,164.00
2019-04-25T04:39:43.612Z,172.00
2019-04-25T04:40:41.764Z,180.00
2019-04-25T04:41:41.742Z,188.00
2019-04-25T04:42:43.429Z,200.00
2019-04-25T04:43:41.706Z,204.00
2019-04-25T04:44:41.716Z,216.00
2019-04-25T04:45:45.014Z,224.00
2019-04-25T04:46:41.674Z,232.00
2019-04-25T04:47:43.251Z,240.00
2019-04-25T04:48:41.625Z,248.00
2019-04-25T04:49:41.619Z,252.00
2019-04-25T04:50:43.136Z,260.00
2019-04-25T04:51:41.572Z,268.00
2019-04-25T04:52:41.559Z,284.00
2019-04-25T04:53:41.537Z,284.00
2019-04-25T04:54:41.530Z,284.00
2019-04-25T04:55:42.874Z,284.00
2019-04-25T04:56:41.502Z,288.00
2019-04-25T04:57:41.472Z,292.00
2019-04-25T04:58:43.071Z,300.00
2019-04-25T04:59:41.431Z,308.00
2019-04-25T05:00:41.425Z,312.00
2019-04-25T05:01:41.418Z,316.00
2019-04-25T05:02:41.384Z,320.00
2019-04-25T05:03:41.369Z,324.00
2019-04-25T05:04:45.727Z,328.00
2019-04-25T05:05:41.351Z,336.00
2019-04-25T05:06:41.319Z,340.00
2019-04-25T05:07:41.305Z,344.00
2019-04-25T05:08:41.306Z,352.00
2019-04-25T05:09:41.287Z,352.00
2019-04-25T05:10:41.257Z,360.00
2019-04-25T05:11:41.231Z,360.00
2019-04-25T05:12:41.219Z,364.00
2019-04-25T05:13:41.221Z,376.00
2019-04-25T05:14:41.181Z,384.00
2019-04-25T05:15:41.165Z,396.00
2019-04-25T05:16:41.154Z,416.00
2019-04-25T05:17:41.136Z,440.00
2019-04-25T05:18:41.119Z,468.00
2019-04-25T05:19:41.097Z,508.00
2019-04-25T05:20:41.086Z,552.00
2019-04-25T05:21:41.086Z,604.00
2019-04-25T05:22:41.048Z,660.00
2019-04-25T05:23:41.035Z,720.00
2019-04-25T05:24:41.024Z,788.00
2019-04-25T05:25:41.002Z,856.00
2019-04-25T05:26:40.979Z,944.00
2019-04-25T05:27:57.797Z,1036.00
2019-04-25T05:28:40.945Z,1144.00
2019-04-25T05:29:40.923Z,1268.00
2019-04-25T05:30:40.923Z,1420.00
2019-04-25T05:31:40.894Z,1592.00
2019-04-25T05:32:40.945Z,1768.00
2019-04-25T05:33:40.865Z,1912.00
2019-04-25T05:34:40.865Z,1968.00
2019-04-25T05:35:40.850Z,1956.00
2019-04-25T05:36:40.840Z,1964.00
2019-04-25T05:37:40.796Z,2012.00
2019-04-25T05:38:40.779Z,2060.00
2019-04-25T05:39:40.766Z,2092.00
2019-04-25T05:40:40.743Z,2144.00
2019-04-25T05:41:40.733Z,2104.00
2019-04-25T05:42:40.714Z,2232.00
2019-04-25T05:43:40.699Z,912.00
2019-04-25T05:44:40.680Z,1120.00
2019-04-25T05:45:40.666Z,872.00
2019-04-25T05:46:40.648Z,1120.00
2019-04-25T05:47:40.633Z,824.00
2019-04-25T05:48:40.616Z,832.00
2019-04-25T05:49:40.603Z,752.00
2019-04-25T05:50:40.586Z,1204.00
2019-04-25T05:51:40.585Z,1816.00
2019-04-25T05:52:40.553Z,1628.00
2019-04-25T05:53:40.537Z,1024.00
2019-04-25T05:54:40.521Z,1472.00
2019-04-25T05:55:40.499Z,1856.00
2019-04-25T05:56:40.487Z,2444.00
2019-04-25T05:57:47.342Z,2448.00
2019-04-25T05:58:40.453Z,2212.00
2019-04-25T05:59:40.445Z,2464.00
2019-04-25T06:00:40.424Z,2500.00
2019-04-25T06:01:40.413Z,2536.00
2019-04-25T06:02:40.390Z,2572.00
2019-04-25T06:03:40.404Z,2608.00
2019-04-25T06:04:40.399Z,2648.00
2019-04-25T06:05:40.359Z,2688.00
2019-04-25T06:06:40.334Z,2720.00
2019-04-25T06:07:40.314Z,2760.00
2019-04-25T06:08:40.303Z,2792.00
2019-04-25T06:09:40.285Z,2824.00
2019-04-25T06:10:40.294Z,2856.00
2019-04-25T06:11:40.255Z,2888.00
2019-04-25T06:12:40.236Z,2920.00
2019-04-25T06:13:40.222Z,2952.00
2019-04-25T06:14:40.212Z,2984.00
2019-04-25T06:15:40.190Z,3008.00
2019-04-25T06:16:40.183Z,3040.00
2019-04-25T06:17:40.161Z,3072.00
2019-04-25T06:18:40.145Z,3104.00
2019-04-25T06:19:40.127Z,3140.00
2019-04-25T06:20:40.112Z,3164.00
2019-04-25T06:21:40.096Z,3204.00
2019-04-25T06:22:40.096Z,3244.00
2019-04-25T06:23:40.071Z,3272.00
2019-04-25T06:24:40.071Z,3312.00
2019-04-25T06:25:40.117Z,3348.00
2019-04-25T06:26:40.180Z,3384.00
2019-04-25T06:27:40.005Z,3424.00
2019-04-25T06:28:51.987Z,3484.00
2019-04-25T06:29:39.975Z,3532.00
2019-04-25T06:30:39.964Z,3576.00
2019-04-25T06:31:39.948Z,3612.00
2019-04-25T06:32:39.939Z,3652.00
2019-04-25T06:33:40.020Z,3684.00
2019-04-25T06:34:39.922Z,3720.00
2019-04-25T06:35:39.880Z,3756.00
2019-04-25T06:36:39.891Z,3784.00
2019-04-25T06:37:39.851Z,3820.00
2019-04-25T06:38:39.842Z,3860.00
2019-04-25T06:39:39.827Z,3908.00
2019-04-25T06:40:39.811Z,3936.00
2019-04-25T06:41:39.805Z,3976.00
2019-04-25T06:42:39.777Z,4024.00
2019-04-25T06:43:39.774Z,4068.00
2019-04-25T06:44:39.771Z,4112.00
2019-04-25T06:45:39.738Z,4156.00
2019-04-25T06:46:39.730Z,4204.00
2019-04-25T06:47:39.713Z,4248.00
2019-04-25T06:48:39.694Z,4300.00
2019-04-25T06:49:39.688Z,4364.00
2019-04-25T06:50:39.671Z,4404.00
2019-04-25T06:51:39.652Z,4440.00
2019-04-25T06:52:39.634Z,4504.00
2019-04-25T06:53:39.629Z,4560.00
2019-04-25T06:54:39.610Z,4604.00
2019-04-25T06:55:39.599Z,4648.00
2019-04-25T06:56:39.584Z,4708.00
2019-04-25T06:57:39.575Z,4764.00
2019-04-25T06:58:39.560Z,4808.00
2019-04-25T06:59:41.393Z,4864.00
2019-04-25T07:00:42.677Z,4928.00
2019-04-25T07:01:39.512Z,4984.00
2019-04-25T07:02:39.506Z,5036.00
2019-04-25T07:03:39.503Z,5116.00
2019-04-25T07:04:39.481Z,5172.00
2019-04-25T07:05:40.687Z,5232.00
2019-04-25T07:06:39.456Z,5308.00
2019-04-25T07:07:39.428Z,5368.00
2019-04-25T07:08:39.419Z,5432.00
2019-04-25T07:09:39.472Z,5504.00
2019-04-25T07:10:39.391Z,5572.00
2019-04-25T07:11:39.375Z,5636.00
2019-04-25T07:12:39.370Z,5696.00
2019-04-25T07:13:39.354Z,5756.00
2019-04-25T07:14:39.348Z,5812.00
2019-04-25T07:15:39.328Z,5872.00
2019-04-25T07:16:39.319Z,5936.00
2019-04-25T07:17:39.317Z,5988.00
2019-04-25T07:18:39.299Z,6044.00
2019-04-25T07:19:39.275Z,6112.00
2019-04-25T07:20:39.266Z,6156.00
2019-04-25T07:21:39.253Z,6220.00
2019-04-25T07:22:39.259Z,6268.00
2019-04-25T07:23:39.222Z,6320.00
2019-04-25T07:24:39.220Z,6364.00
2019-04-25T07:25:39.227Z,6420.00
2019-04-25T07:26:39.826Z,6464.00
2019-04-25T07:27:39.199Z,6504.00
2019-04-25T07:28:39.174Z,6544.00
2019-04-25T07:29:39.152Z,6592.00
2019-04-25T07:30:49.900Z,6648.00
2019-04-25T07:31:39.131Z,6676.00
2019-04-25T07:32:39.129Z,6724.00
2019-04-25T07:33:39.125Z,6744.00
2019-04-25T07:34:39.116Z,6800.00
2019-04-25T07:35:39.089Z,6852.00
2019-04-25T07:36:39.081Z,6880.00
2019-04-25T07:37:41.589Z,6928.00
2019-04-25T07:38:39.055Z,6972.00
2019-04-25T07:39:39.047Z,7024.00
2019-04-25T07:40:39.046Z,7064.00
2019-04-25T07:41:39.031Z,7100.00
2019-04-25T07:42:39.009Z,7120.00
2019-04-25T07:43:39.012Z,7172.00
2019-04-25T07:44:49.677Z,7208.00
2019-04-25T07:45:38.982Z,7248.00
2019-04-25T07:46:39.953Z,7276.00
2019-04-25T07:47:39.012Z,7300.00
2019-04-25T07:48:38.955Z,7336.00
2019-04-25T07:49:38.958Z,7368.00
2019-04-25T07:50:38.944Z,7396.00
2019-04-25T07:51:38.917Z,7424.00
2019-04-25T07:52:38.919Z,7460.00
2019-04-25T07:53:38.903Z,7508.00
2019-04-25T07:54:38.908Z,7548.00
2019-04-25T07:55:38.900Z,7600.00
2019-04-25T07:56:38.873Z,7620.00
2019-04-25T07:57:38.867Z,7656.00
2019-04-25T07:58:49.609Z,7696.00
2019-04-25T07:59:38.863Z,7724.00
2019-04-25T08:00:38.840Z,7764.00
2019-04-25T08:01:39.120Z,7796.00
2019-04-25T08:02:39.562Z,7832.00
2019-04-25T08:03:38.815Z,7848.00
2019-04-25T08:04:38.807Z,7888.00
2019-04-25T08:05:38.796Z,7932.00
2019-04-25T08:06:38.789Z,7984.00
2019-04-25T08:07:38.775Z,8032.00
2019-04-25T08:08:38.771Z,8088.00
2019-04-25T08:09:38.761Z,8136.00
2019-04-25T08:10:38.761Z,8196.00
2019-04-25T08:11:38.742Z,8236.00
2019-04-25T08:12:39.436Z,8280.00
2019-04-25T08:13:38.734Z,8332.00
2019-04-25T08:14:38.721Z,8384.00
2019-04-25T08:15:38.712Z,8432.00
2019-04-25T08:16:39.305Z,8484.00
2019-04-25T08:17:39.867Z,8524.00
2019-04-25T08:18:38.947Z,8572.00
2019-04-25T08:19:39.342Z,8620.00
2019-04-25T08:20:38.676Z,8680.00
2019-04-25T08:21:38.670Z,8744.00
2019-04-25T08:22:51.959Z,8788.00
2019-04-25T08:23:38.945Z,8832.00
2019-04-25T08:24:39.115Z,8876.00
2019-04-25T08:25:39.647Z,8888.00
2019-04-25T08:26:39.390Z,8916.00
2019-04-25T08:27:38.902Z,8956.00
2019-04-25T08:28:50.171Z,9020.00
2019-04-25T08:29:39.723Z,9072.00
2019-04-25T08:30:38.625Z,9128.00
2019-04-25T08:31:39.364Z,9196.00
2019-04-25T08:32:39.563Z,9260.00
2019-04-25T08:33:39.102Z,9308.00
2019-04-25T08:34:38.694Z,9372.00
2019-04-25T08:35:38.571Z,9432.00
2019-04-25T08:36:39.839Z,9520.00
2019-04-25T08:37:38.562Z,9620.00
2019-04-25T08:38:38.610Z,9776.00
2019-04-25T08:39:39.715Z,9992.00
2019-04-25T08:40:39.015Z,10428.00
2019-04-25T08:41:38.556Z,5964.00
2019-04-25T08:42:38.531Z,5056.00
2019-04-25T08:43:39.384Z,7088.00
2019-04-25T08:44:39.238Z,11140.00
2019-04-25T08:45:38.548Z,11240.00
2019-04-25T08:46:39.444Z,9868.00
2019-04-25T08:47:39.379Z,9428.00
2019-04-25T08:48:38.491Z,7396.00
2019-04-25T08:49:38.488Z,5780.00
2019-04-25T08:50:40.181Z,9100.00
2019-04-25T08:51:38.477Z,6648.00
2019-04-25T08:52:38.480Z,10864.00
2019-04-25T08:53:38.904Z,10212.00
2019-04-25T08:54:41.526Z,7760.00
2019-04-25T08:55:38.462Z,5956.00
2019-04-25T08:56:38.457Z,8192.00
2019-04-25T08:57:38.451Z,7444.00
2019-04-25T08:58:39.152Z,8632.00
2019-04-25T08:59:43.293Z,9840.00
2019-04-25T09:00:38.459Z,9668.00
2019-04-25T09:01:40.601Z,9580.00
2019-04-25T09:02:38.921Z,9524.00
2019-04-25T09:03:38.425Z,8804.00
2019-04-25T09:04:38.422Z,9652.00
2019-04-25T09:05:38.939Z,9848.00
2019-04-25T09:06:38.634Z,10176.00
2019-04-25T09:07:39.104Z,9648.00
2019-04-25T09:08:39.368Z,10436.00
2019-04-25T09:09:39.030Z,8228.00
2019-04-25T09:10:39.984Z,6656.00
2019-04-25T09:11:40.004Z,8140.00
2019-04-25T09:12:38.400Z,10088.00
2019-04-25T09:13:39.370Z,6364.00
2019-04-25T09:14:39.012Z,7740.00
2019-04-25T09:15:39.285Z,7960.00
2019-04-25T09:16:38.373Z,7900.00
2019-04-25T09:17:39.319Z,7976.00
2019-04-25T09:18:38.376Z,10036.00
2019-04-25T09:19:38.511Z,8620.00
2019-04-25T09:20:40.885Z,9480.00
2019-04-25T09:21:38.365Z,8132.00
2019-04-25T09:22:38.661Z,9700.00
2019-04-25T09:23:38.358Z,9444.00
2019-04-25T09:24:38.989Z,9500.00
2019-04-25T09:25:38.632Z,9308.00
2019-04-25T09:26:38.390Z,9668.00
2019-04-25T09:27:40.398Z,7392.00
2019-04-25T09:28:40.581Z,7480.00
2019-04-25T09:29:38.934Z,7364.00
2019-04-25T09:30:38.493Z,7812.00
2019-04-25T09:31:39.206Z,7932.00
2019-04-25T09:32:38.326Z,9644.00
2019-04-25T09:33:39.152Z,9500.00
2019-04-25T09:34:38.318Z,9364.00
2019-04-25T09:35:38.315Z,9188.00
2019-04-25T09:36:38.312Z,9024.00
2019-04-25T09:37:38.761Z,8880.00
2019-04-25T09:38:38.853Z,8728.00
2019-04-25T09:39:38.991Z,8624.00
2019-04-25T09:40:38.295Z,8540.00
2019-04-25T09:41:38.292Z,8464.00
2019-04-25T09:42:39.301Z,8388.00
2019-04-25T09:43:38.282Z,8372.00
2019-04-25T09:44:39.295Z,8352.00
2019-04-25T09:45:38.277Z,8348.00
2019-04-25T09:46:38.273Z,8328.00
2019-04-25T09:47:39.208Z,8328.00
2019-04-25T09:48:38.274Z,8328.00
2019-04-25T09:49:39.074Z,8312.00
2019-04-25T09:50:39.397Z,8308.00
2019-04-25T09:51:38.257Z,8296.00
2019-04-25T09:52:38.250Z,8312.00
2019-04-25T09:53:43.737Z,8324.00
2019-04-25T09:54:38.241Z,8320.00
2019-04-25T09:55:38.240Z,8312.00
2019-04-25T09:56:38.344Z,8328.00
2019-04-25T09:57:38.980Z,8336.00
2019-04-25T09:58:38.234Z,8348.00
2019-04-25T09:59:39.303Z,8364.00
2019-04-25T10:00:38.280Z,8376.00
2019-04-25T10:01:38.244Z,8396.00
2019-04-25T10:02:38.264Z,8432.00
2019-04-25T10:03:38.653Z,8444.00
2019-04-25T10:04:39.147Z,8468.00
2019-04-25T10:05:38.446Z,8512.00
2019-04-25T10:06:38.910Z,8536.00
2019-04-25T10:07:38.507Z,8596.00
2019-04-25T10:08:38.708Z,8668.00
2019-04-25T10:09:38.225Z,8748.00
2019-04-25T10:10:38.891Z,8844.00
2019-04-25T10:11:38.368Z,8956.00
2019-04-25T10:12:38.787Z,9088.00
2019-04-25T10:13:38.518Z,9296.00
2019-04-25T10:14:38.942Z,9556.00
2019-04-25T10:15:39.052Z,9844.00
2019-04-25T10:16:39.007Z,10188.00
2019-04-25T10:17:39.240Z,10672.00
2019-04-25T10:18:39.159Z,10328.00
2019-04-25T10:19:39.082Z,8080.00
2019-04-25T10:20:38.176Z,7152.00
2019-04-25T10:21:38.171Z,8600.00
2019-04-25T10:22:38.837Z,10268.00
2019-04-25T10:23:38.269Z,8520.00
2019-04-25T10:24:38.517Z,10680.00
2019-04-25T10:25:38.151Z,7528.00
2019-04-25T10:26:38.974Z,9020.00
2019-04-25T10:27:38.295Z,7296.00
2019-04-25T10:28:38.720Z,7972.00
2019-04-25T10:29:44.395Z,6440.00
2019-04-25T10:30:39.422Z,8784.00
2019-04-25T10:31:38.152Z,9232.00
2019-04-25T10:32:38.178Z,7688.00
2019-04-25T10:33:38.861Z,8560.00
2019-04-25T10:34:38.153Z,9448.00
2019-04-25T10:35:47.946Z,8328.00
2019-04-25T10:36:39.905Z,8280.00
2019-04-25T10:37:38.901Z,6692.00
2019-04-25T10:38:39.326Z,6608.00
2019-04-25T10:39:39.936Z,8256.00
2019-04-25T10:40:38.494Z,6092.00
2019-04-25T10:41:39.786Z,6712.00
2019-04-25T10:42:39.007Z,6284.00
2019-04-25T10:43:38.316Z,6232.00
2019-04-25T10:44:38.141Z,6384.00
2019-04-25T10:45:38.144Z,6748.00
2019-04-25T10:46:38.124Z,6284.00
2019-04-25T10:47:38.116Z,6356.00
2019-04-25T10:48:39.899Z,6904.00
2019-04-25T10:49:38.210Z,7516.00
2019-04-25T10:50:38.142Z,11084.00
2019-04-25T10:51:38.120Z,7900.00
2019-04-25T10:52:38.984Z,7124.00
2019-04-25T10:53:38.121Z,8256.00
2019-04-25T10:54:39.710Z,7388.00
2019-04-25T10:55:38.106Z,7892.00
2019-04-25T10:56:38.107Z,7092.00
2019-04-25T10:57:38.085Z,5964.00
2019-04-25T10:58:38.078Z,8552.00
2019-04-25T10:59:38.066Z,7012.00
2019-04-25T11:00:38.070Z,11436.00
2019-04-25T11:01:38.122Z,8716.00
2019-04-25T11:02:38.071Z,7588.00
2019-04-25T11:03:38.070Z,7976.00
2019-04-25T11:04:38.047Z,8096.00
2019-04-25T11:05:38.054Z,6492.00
2019-04-25T11:06:38.065Z,5760.00
2019-04-25T11:07:38.043Z,5804.00
2019-04-25T11:08:38.060Z,6060.00
2019-04-25T11:09:38.034Z,6036.00
2019-04-25T11:10:38.046Z,5808.00
2019-04-25T11:11:38.029Z,6052.00
2019-04-25T11:12:38.059Z,6120.00
2019-04-25T11:13:38.018Z,5536.00
2019-04-25T11:14:38.038Z,5540.00
2019-04-25T11:15:38.037Z,6032.00
2019-04-25T11:16:38.017Z,5788.00
2019-04-25T11:17:38.032Z,5844.00
2019-04-25T11:18:38.361Z,5860.00
2019-04-25T11:19:38.020Z,5748.00
2019-04-25T11:20:38.006Z,5964.00
2019-04-25T11:21:37.993Z,7540.00
2019-04-25T11:22:38.051Z,6560.00
2019-04-25T11:23:37.982Z,6512.00
2019-04-25T11:24:38.026Z,5192.00
2019-04-25T11:25:38.017Z,4900.00
2019-04-25T11:26:37.987Z,5068.00
2019-04-25T11:27:37.983Z,4720.00
2019-04-25T11:28:38.060Z,4656.00
2019-04-25T11:29:37.996Z,4780.00
2019-04-25T11:30:37.987Z,4880.00
2019-04-25T11:31:37.979Z,4964.00
2019-04-25T11:32:37.986Z,5064.00
2019-04-25T11:33:37.940Z,5248.00
2019-04-25T11:34:38.615Z,5520.00
2019-04-25T11:35:38.021Z,5652.00
2019-04-25T11:36:38.196Z,6012.00
2019-04-25T11:37:37.969Z,7212.00
2019-04-25T11:38:37.962Z,6948.00
2019-04-25T11:39:37.937Z,6408.00
2019-04-25T11:40:37.935Z,7072.00
2019-04-25T11:41:37.933Z,6344.00
2019-04-25T11:42:37.903Z,6748.00
2019-04-25T11:43:37.952Z,6488.00
2019-04-25T11:44:37.979Z,8144.00
2019-04-25T11:45:37.911Z,8184.00
2019-04-25T11:46:39.301Z,5532.00
2019-04-25T11:47:37.911Z,4888.00
2019-04-25T11:48:37.923Z,4912.00
2019-04-25T11:49:37.922Z,6600.00
2019-04-25T11:50:37.878Z,5616.00
2019-04-25T11:51:37.874Z,5484.00
2019-04-25T11:52:37.917Z,5516.00
2019-04-25T11:53:37.878Z,5768.00
2019-04-25T11:54:38.039Z,5888.00
2019-04-25T11:55:37.888Z,5548.00
2019-04-25T11:56:37.872Z,7044.00
2019-04-25T11:57:38.003Z,6196.00
2019-04-25T11:58:37.873Z,5324.00
2019-04-25T11:59:37.858Z,6228.00
2019-04-25T12:00:37.834Z,5496.00
2019-04-25T12:01:37.821Z,5840.00
2019-04-25T12:02:37.843Z,5472.00
2019-04-25T12:03:37.906Z,6704.00
2019-04-25T12:04:37.883Z,7080.00
2019-04-25T12:05:37.863Z,7912.00
2019-04-25T12:06:37.807Z,6264.00
2019-04-25T12:07:37.841Z,12224.00
2019-04-25T12:08:37.796Z,5132.00
2019-04-25T12:09:37.792Z,5448.00
2019-04-25T12:10:37.846Z,5244.00
2019-04-25T12:11:37.791Z,5136.00
2019-04-25T12:12:37.881Z,6456.00
2019-04-25T12:13:37.811Z,5336.00
2019-04-25T12:14:37.813Z,5720.00
2019-04-25T12:15:37.811Z,5512.00
2019-04-25T12:16:37.787Z,5004.00
2019-04-25T12:17:37.767Z,5204.00
2019-04-25T12:18:37.781Z,5036.00
2019-04-25T12:19:38.193Z,5232.00
2019-04-25T12:20:37.745Z,5276.00
2019-04-25T12:21:37.755Z,5688.00
2019-04-25T12:22:37.772Z,5428.00
2019-04-25T12:23:37.739Z,5060.00
2019-04-25T12:24:37.758Z,4980.00
2019-04-25T12:25:37.739Z,5356.00
2019-04-25T12:26:37.760Z,5608.00
2019-04-25T12:27:37.745Z,5212.00
2019-04-25T12:28:37.814Z,5152.00
2019-04-25T12:29:38.919Z,5288.00
2019-04-25T12:30:40.328Z,5964.00